Time;durP1;ratioP1;P1;durP2;ratioP2;P2;SDS_P1;SDS_P2;PMS_P1;PMS_P2;Temp;Humidity;BMP_temperature;BMP_pressure;BME280_temperature;BME280_humidity;BME280_pressure;Samples;Min_cycle;Max_cycle;Signal;HPM_P1;HPM_P2
2022/06/10 10:05:21;;;;;;;;;;;21.10;95.20;;;;;;4912595;29;19931;-82
2022/06/10 10:07:58;;;;;;;;;;;21.30;95.30;;;;;;4924472;29;19927;-81
2022/06/10 10:10:29;;;;;;;;;;;21.30;95.10;;;;;;4901031;29;19939;-82
2022/06/10 10:13:00;;;;;;;;;;;21.40;94.70;;;;;;4904276;29;19931;-83
2022/06/10 10:15:49;;;;;;;;;;;21.40;94.80;;;;;;4906303;29;19936;-80
2022/06/10 10:18:20;;;;;;;;;;;21.50;94.80;;;;;;4905267;29;19939;-80
2022/06/10 10:20:47;;;;;;;;;;;21.40;94.60;;;;;;4895483;29;19938;-81
2022/06/10 10:23:30;;;;;;;;;;;21.40;95.20;;;;;;4894757;29;19937;-82
2022/06/10 10:25:58;;;;;;;;;;;22.70;95.30;;;;;;4912618;29;19942;-82
2022/06/10 10:28:29;;;;;;;;;;;21.30;95.30;;;;;;4906292;29;20321;-82
2022/06/10 10:31:02;;;;;;;;;;;21.40;95.10;;;;;;4917754;29;19934;-81
2022/06/10 10:33:30;;;;;;;;;;;21.90;94.60;;;;;;4915480;29;20149;-83
2022/06/10 10:35:58;;;;;;;;;;;21.80;94.20;;;;;;4894776;29;19927;-81
2022/06/10 10:38:37;;;;;;;;;;;22.10;93.60;;;;;;4894448;29;19938;-83
2022/06/10 10:41:23;;;;;;;;;;;22.20;93.70;;;;;;4902658;29;20211;-81
2022/06/10 10:43:52;;;;;;;;;;;22.40;93.90;;;;;;4909628;29;19927;-83
2022/06/10 10:46:28;;;;;;;;;;;22.70;93.90;;;;;;4888188;29;20843;-82
2022/06/10 10:48:57;;;;;;;;;;;22.90;93.90;;;;;;4911205;29;19931;-83
2022/06/10 10:51:36;;;;;;;;;;;22.90;93.00;;;;;;4894553;29;20193;-84
2022/06/10 10:54:30;;;;;;;;;;;23.10;92.50;;;;;;4895709;29;19928;-88
2022/06/10 10:57:22;;;;;;;;;;;22.50;92.30;;;;;;4908241;29;19935;-81
2022/06/10 10:59:55;;;;;;;;;;;23.00;92.90;;;;;;4905335;29;19927;-81
2022/06/10 11:02:29;;;;;;;;;;;22.90;92.20;;;;;;4882695;29;19931;-82
2022/06/10 11:05:16;;;;;;;;;;;22.80;92.00;;;;;;4880377;29;19934;-81
2022/06/10 11:07:46;;;;;;;;;;;21.80;92.10;;;;;;4896563;29;19931;-81
2022/06/10 11:10:20;;;;;;;;;;;23.00;92.40;;;;;;4918817;29;19927;-80
2022/06/10 11:12:48;;;;;;;;;;;23.30;91.50;;;;;;4895984;29;19939;-81
2022/06/10 11:15:27;;;;;;;;;;;23.20;91.30;;;;;;4905672;29;19943;-83
2022/06/10 11:17:56;;;;;;;;;;;23.20;91.00;;;;;;4914311;29;19928;-82
2022/06/10 11:20:27;;;;;;;;;;;23.20;91.30;;;;;;4857092;29;19927;-83
2022/06/10 11:23:15;;;;;;;;;;;23.30;90.90;;;;;;4909145;29;19935;-80
2022/06/10 11:26:13;;;;;;;;;;;23.20;91.10;;;;;;4886544;29;20282;-81
2022/06/10 11:28:42;;;;;;;;;;;23.10;90.90;;;;;;4910561;29;19931;-83
2022/06/10 11:31:20;;;;;;;;;;;23.00;90.70;;;;;;4878445;29;20001;-77
2022/06/10 11:33:51;;;;;;;;;;;22.90;90.90;;;;;;4889597;29;19955;-80
2022/06/10 11:36:21;;;;;;;;;;;22.80;91.00;;;;;;4891100;29;19962;-83
2022/06/10 11:38:51;;;;;;;;;;;22.20;91.00;;;;;;4873889;29;19936;-85
2022/06/10 11:41:22;;;;;;;;;;;23.00;91.00;;;;;;4907743;29;19942;-85
2022/06/10 11:44:12;;;;;;;;;;;23.10;90.80;;;;;;4909191;29;19953;-81
2022/06/10 11:46:57;;;;;;;;;;;23.30;90.90;;;;;;4905482;29;19941;-81
2022/06/10 11:49:32;;;;;;;;;;;23.60;90.60;;;;;;4891419;29;19931;-85
2022/06/10 11:52:05;;;;;;;;;;;23.80;90.30;;;;;;4876797;29;19937;-80
2022/06/10 11:54:50;;;;;;;;;;;23.90;90.60;;;;;;4905781;29;19937;-80
2022/06/10 12:00:12;;;;;;;;;;;24.40;89.80;;;;;;4883495;29;19938;-82
2022/06/10 12:02:40;;;;;;;;;;;24.60;87.40;;;;;;4906668;29;19935;-81
2022/06/10 12:05:18;;;;;;;;;;;24.70;88.70;;;;;;4918116;29;19950;-81
2022/06/10 12:07:53;;;;;;;;;;;24.90;88.50;;;;;;4915662;29;19931;-84
2022/06/10 12:10:33;;;;;;;;;;;25.00;87.80;;;;;;4901047;29;19954;-80
2022/06/10 12:13:09;;;;;;;;;;;25.30;87.20;;;;;;4907120;29;19927;-81
2022/06/10 12:15:44;;;;;;;;;;;25.20;86.40;;;;;;4907647;29;19927;-80
2022/06/10 12:18:13;;;;;;;;;;;25.10;86.30;;;;;;4549159;29;9999833;-82
2022/06/10 12:20:43;;;;;;;;;;;25.20;86.50;;;;;;4876519;29;19928;-81
2022/06/10 12:23:15;;;;;;;;;;;25.20;86.50;;;;;;4896218;29;19944;-82
2022/06/10 12:25:50;;;;;;;;;;;25.20;86.50;;;;;;4918036;29;19928;-81
2022/06/10 12:28:30;;;;;;;;;;;25.20;86.00;;;;;;4908005;29;19947;-82
2022/06/10 12:31:01;;;;;;;;;;;25.00;85.90;;;;;;4890730;29;19934;-80
2022/06/10 12:33:43;;;;;;;;;;;25.00;86.00;;;;;;4905446;29;20718;-81
2022/06/10 12:36:14;;;;;;;;;;;25.00;87.00;;;;;;4906371;29;19915;-82
2022/06/10 12:38:46;;;;;;;;;;;25.20;86.10;;;;;;4889193;29;19931;-81
2022/06/10 12:41:17;;;;;;;;;;;24.90;85.40;;;;;;4901368;29;19927;-82
2022/06/10 12:43:47;;;;;;;;;;;24.70;86.30;;;;;;4899180;29;19931;-81
2022/06/10 12:46:32;;;;;;;;;;;24.60;86.50;;;;;;4917372;29;19931;-85
2022/06/10 12:49:09;;;;;;;;;;;24.70;87.30;;;;;;4892262;29;19940;-86
2022/06/10 12:51:39;;;;;;;;;;;25.00;86.20;;;;;;4862156;29;19942;-82
2022/06/10 12:54:16;;;;;;;;;;;25.20;86.50;;;;;;4920628;29;19934;-82
2022/06/10 12:56:44;;;;;;;;;;;25.10;87.30;;;;;;4900797;29;19938;-82
2022/06/10 12:59:39;;;;;;;;;;;25.30;87.00;;;;;;4917338;29;19934;-81
2022/06/10 13:02:27;;;;;;;;;;;25.30;86.60;;;;;;4902290;29;19938;-82
2022/06/10 13:05:04;;;;;;;;;;;25.40;86.70;;;;;;4907664;29;19928;-81
2022/06/10 13:07:38;;;;;;;;;;;25.30;86.30;;;;;;4917743;29;19943;-82
2022/06/10 13:10:25;;;;;;;;;;;25.50;87.40;;;;;;4902263;29;21445;-81
2022/06/10 13:12:56;;;;;;;;;;;25.50;87.20;;;;;;4894572;29;19931;-80
2022/06/10 13:15:30;;;;;;;;;;;25.60;86.80;;;;;;4909506;29;19927;-82
2022/06/10 13:18:04;;;;;;;;;;;25.60;86.10;;;;;;4872523;29;19928;-81
2022/06/10 13:20:38;;;;;;;;;;;25.70;86.70;;;;;;4875956;29;19957;-81
2022/06/10 13:23:09;;;;;;;;;;;25.80;86.60;;;;;;4893048;29;20472;-81
2022/06/10 13:25:38;;;;;;;;;;;25.90;86.70;;;;;;4871023;29;19934;-81
2022/06/10 13:28:17;;;;;;;;;;;26.10;85.80;;;;;;4888552;29;19931;-81
2022/06/10 13:30:47;;;;;;;;;;;26.20;84.50;;;;;;4858444;29;19928;-82
2022/06/10 13:33:17;;;;;;;;;;;26.20;85.20;;;;;;4903543;29;19927;-82
2022/06/10 13:35:45;;;;;;;;;;;26.30;85.00;;;;;;4872067;29;19935;-82
2022/06/10 13:38:27;;;;;;;;;;;26.20;84.50;;;;;;4886933;29;19939;-81
2022/06/10 13:41:48;;;;;;;;;;;26.30;84.90;;;;;;4887560;29;19928;-82
2022/06/10 13:43:43;;;;;;;;;;;26.50;84.30;;;;;;4905539;29;21006;-82
2022/06/10 13:46:20;;;;;;;;;;;26.50;82.90;;;;;;4870363;29;19932;-82
2022/06/10 13:48:48;;;;;;;;;;;26.50;82.70;;;;;;4886873;29;20307;-83
2022/06/10 13:51:28;;;;;;;;;;;26.70;83.50;;;;;;4885542;29;19934;-81
2022/06/10 13:53:58;;;;;;;;;;;26.10;83.60;;;;;;4898546;29;19935;-81
2022/06/10 13:56:28;;;;;;;;;;;25.90;83.70;;;;;;4902956;29;19938;-81
2022/06/10 13:58:57;;;;;;;;;;;26.10;84.70;;;;;;4889056;29;19935;-81
2022/06/10 14:01:29;;;;;;;;;;;26.30;85.00;;;;;;4915924;29;19931;-82
2022/06/10 14:04:02;;;;;;;;;;;26.50;84.00;;;;;;4869171;29;19950;-83
2022/06/10 14:06:32;;;;;;;;;;;26.70;83.10;;;;;;4903080;29;19939;-83
2022/06/10 14:09:18;;;;;;;;;;;27.00;82.30;;;;;;4885366;29;19935;-82
2022/06/10 14:12:07;;;;;;;;;;;27.10;81.70;;;;;;4898421;29;19939;-77
2022/06/10 14:14:38;;;;;;;;;;;27.30;82.30;;;;;;4876748;29;19934;-79
2022/06/10 14:17:11;;;;;;;;;;;27.60;81.00;;;;;;4910401;29;19934;-78
2022/06/10 14:20:08;;;;;;;;;;;27.70;80.40;;;;;;4888160;29;19929;-80
2022/06/10 14:22:36;;;;;;;;;;;27.80;78.90;;;;;;4883135;29;19932;-81
2022/06/10 14:25:17;;;;;;;;;;;27.90;79.40;;;;;;4874770;29;20124;-80
2022/06/10 14:28:02;;;;;;;;;;;28.00;78.70;;;;;;4877207;29;19940;-80
2022/06/10 14:30:33;;;;;;;;;;;28.00;78.60;;;;;;4898267;29;19939;-81
2022/06/10 14:33:13;;;;;;;;;;;27.90;77.50;;;;;;4905280;29;19938;-80
2022/06/10 14:35:43;;;;;;;;;;;27.80;78.30;;;;;;4900399;29;19931;-81
2022/06/10 14:38:16;;;;;;;;;;;27.50;77.70;;;;;;4884139;29;19955;-79
2022/06/10 14:41:04;;;;;;;;;;;27.40;78.10;;;;;;4871550;29;19940;-79
2022/06/10 14:43:36;;;;;;;;;;;27.40;78.30;;;;;;4901128;29;19927;-84
2022/06/10 14:46:11;;;;;;;;;;;27.50;78.80;;;;;;4899984;29;19927;-81
2022/06/10 14:48:41;;;;;;;;;;;27.70;78.50;;;;;;4896431;29;20282;-79
2022/06/10 14:51:16;;;;;;;;;;;27.90;78.00;;;;;;4888853;29;20432;-81
2022/06/10 14:53:56;;;;;;;;;;;28.10;78.30;;;;;;4885197;29;19928;-83
2022/06/10 14:56:40;;;;;;;;;;;28.20;77.50;;;;;;4873090;29;19938;-80
2022/06/10 14:59:15;;;;;;;;;;;28.30;77.50;;;;;;4891555;29;19935;-80
2022/06/10 15:01:44;;;;;;;;;;;28.40;76.50;;;;;;4873952;29;19936;-78
2022/06/10 15:04:13;;;;;;;;;;;28.60;76.80;;;;;;4885875;29;19931;-79
2022/06/10 15:06:43;;;;;;;;;;;28.90;76.60;;;;;;4903071;29;20394;-80
2022/06/10 15:09:30;;;;;;;;;;;28.80;74.80;;;;;;4887113;29;19931;-78
2022/06/10 15:12:19;;;;;;;;;;;28.70;75.30;;;;;;4876109;29;19927;-81
2022/06/10 15:14:48;;;;;;;;;;;28.90;75.80;;;;;;4888686;29;19936;-78
2022/06/10 15:17:21;;;;;;;;;;;28.60;75.70;;;;;;4905985;29;19940;-80
2022/06/10 15:19:49;;;;;;;;;;;28.70;76.20;;;;;;4902344;29;20396;-81
2022/06/10 15:22:30;;;;;;;;;;;28.80;77.00;;;;;;4907347;29;19927;-81
2022/06/10 15:24:59;;;;;;;;;;;28.70;74.90;;;;;;4887913;29;20455;-81
2022/06/10 15:27:28;;;;;;;;;;;28.00;75.40;;;;;;4907601;29;19932;-79
2022/06/10 15:29:56;;;;;;;;;;;27.60;76.10;;;;;;4904934;29;19928;-80
2022/06/10 15:32:23;;;;;;;;;;;27.70;76.90;;;;;;4903856;29;20365;-81
2022/06/10 15:40:43;;;;;;;;;;;28.50;77.10;;;;;;4908281;29;19935;-80
2022/06/10 15:43:15;;;;;;;;;;;27.50;76.40;;;;;;4891714;29;20354;-79
2022/06/10 15:45:44;;;;;;;;;;;27.20;77.50;;;;;;4891916;29;19938;-81
2022/06/10 15:48:15;;;;;;;;;;;27.20;78.10;;;;;;4907732;29;19928;-81
2022/06/10 15:50:45;;;;;;;;;;;27.50;77.80;;;;;;4902990;29;19943;-81
2022/06/10 15:53:16;;;;;;;;;;;27.10;77.30;;;;;;4903439;29;19938;-80
2022/06/10 15:58:33;;;;;;;;;;;26.60;79.20;;;;;;4904511;29;20904;-83
2022/06/10 16:01:02;;;;;;;;;;;26.60;79.40;;;;;;4886846;29;19928;-80
2022/06/10 16:03:31;;;;;;;;;;;26.60;78.60;;;;;;4890626;29;19934;-81
2022/06/10 16:06:00;;;;;;;;;;;26.80;78.70;;;;;;4904831;29;20101;-79
2022/06/10 16:08:28;;;;;;;;;;;27.10;78.40;;;;;;4899318;29;19927;-87
2022/06/10 16:10:58;;;;;;;;;;;27.40;78.30;;;;;;4903388;29;19927;-82
2022/06/10 16:13:33;;;;;;;;;;;27.70;77.60;;;;;;4905727;29;19935;-81
2022/06/10 16:16:02;;;;;;;;;;;28.00;76.60;;;;;;4911350;29;19931;-80
2022/06/10 16:18:37;;;;;;;;;;;27.90;76.70;;;;;;4894895;29;20252;-80
2022/06/10 16:21:06;;;;;;;;;;;27.80;76.40;;;;;;4907041;29;19946;-81
2022/06/10 16:23:38;;;;;;;;;;;27.70;76.50;;;;;;4910833;29;19933;-80
2022/06/10 16:26:12;;;;;;;;;;;27.70;77.10;;;;;;4876415;29;20038;-80
2022/06/10 16:28:48;;;;;;;;;;;27.80;76.60;;;;;;4907294;29;19938;-82
2022/06/10 16:31:23;;;;;;;;;;;27.90;75.90;;;;;;4887358;29;19928;-81
2022/06/10 16:33:53;;;;;;;;;;;28.30;75.40;;;;;;4906840;29;19935;-81
2022/06/10 16:36:23;;;;;;;;;;;28.70;75.10;;;;;;4905873;29;19928;-84
2022/06/10 16:38:53;;;;;;;;;;;28.90;74.30;;;;;;4885922;29;20528;-80
2022/06/10 16:41:30;;;;;;;;;;;28.90;73.90;;;;;;4890397;29;19936;-81
2022/06/10 16:44:00;;;;;;;;;;;28.80;73.60;;;;;;4886958;29;19928;-84
2022/06/10 16:46:39;;;;;;;;;;;29.10;73.90;;;;;;4904022;29;19935;-82
2022/06/10 16:49:14;;;;;;;;;;;29.30;73.60;;;;;;4886296;29;19931;-80
2022/06/10 16:51:41;;;;;;;;;;;29.60;73.00;;;;;;4908240;29;19935;-80
2022/06/10 16:54:09;;;;;;;;;;;29.80;71.60;;;;;;4906369;29;19943;-80
2022/06/10 16:56:39;;;;;;;;;;;29.80;70.60;;;;;;4888260;29;19935;-80
2022/06/10 16:59:09;;;;;;;;;;;29.60;71.10;;;;;;4889255;29;19949;-80
2022/06/10 17:01:37;;;;;;;;;;;29.30;70.90;;;;;;4902943;29;19938;-80
2022/06/10 17:04:11;;;;;;;;;;;29.10;71.30;;;;;;4884941;29;20365;-81
2022/06/10 17:06:39;;;;;;;;;;;28.90;71.30;;;;;;4884878;29;19936;-81
2022/06/10 17:09:06;;;;;;;;;;;28.70;71.90;;;;;;4903261;29;19942;-82
2022/06/10 17:11:45;;;;;;;;;;;28.60;71.30;;;;;;4887184;29;19928;-83
2022/06/10 17:14:18;;;;;;;;;;;28.30;72.10;;;;;;4887935;29;19937;-80
2022/06/10 17:16:47;;;;;;;;;;;27.70;72.50;;;;;;4887974;29;20305;-83
2022/06/10 17:19:17;;;;;;;;;;;27.70;73.20;;;;;;4901060;29;20006;-80
2022/06/10 17:21:46;;;;;;;;;;;27.60;72.80;;;;;;4905228;29;19939;-82
2022/06/10 17:24:16;;;;;;;;;;;27.80;72.70;;;;;;4905788;29;19938;-80
2022/06/10 17:26:54;;;;;;;;;;;27.90;72.30;;;;;;4890535;29;19931;-84
2022/06/10 17:29:31;;;;;;;;;;;27.80;72.40;;;;;;4907973;29;19932;-83
2022/06/10 17:32:00;;;;;;;;;;;27.80;71.20;;;;;;4907118;29;19936;-85
2022/06/10 17:34:30;;;;;;;;;;;28.10;71.00;;;;;;4896112;29;19942;-82
2022/06/10 17:36:58;;;;;;;;;;;28.40;72.10;;;;;;4909797;29;19928;-80
2022/06/10 17:39:26;;;;;;;;;;;28.20;71.60;;;;;;4909836;29;19934;-80
2022/06/10 17:41:55;;;;;;;;;;;28.50;70.70;;;;;;4908009;29;20397;-79
2022/06/10 17:44:31;;;;;;;;;;;28.60;69.80;;;;;;4908756;29;19936;-85
2022/06/10 17:47:04;;;;;;;;;;;28.40;69.70;;;;;;4890529;29;19935;-82
2022/06/10 17:49:39;;;;;;;;;;;28.40;70.00;;;;;;4894365;29;19934;-79
2022/06/10 17:52:10;;;;;;;;;;;28.10;69.70;;;;;;4908092;29;19969;-81
2022/06/10 17:54:40;;;;;;;;;;;28.00;70.20;;;;;;4910455;29;19942;-81
2022/06/10 17:57:27;;;;;;;;;;;28.40;70.20;;;;;;4874859;29;19936;-81
2022/06/10 17:59:55;;;;;;;;;;;28.30;69.80;;;;;;4892813;29;19928;-80
2022/06/10 18:02:28;;;;;;;;;;;28.30;69.70;;;;;;4905599;29;20510;-85
2022/06/10 18:04:57;;;;;;;;;;;28.20;70.50;;;;;;4911892;29;19928;-78
2022/06/10 18:07:28;;;;;;;;;;;28.20;71.10;;;;;;4889925;29;19943;-80
2022/06/10 18:09:58;;;;;;;;;;;28.10;71.20;;;;;;4892292;29;19946;-82
2022/06/10 18:12:33;;;;;;;;;;;27.90;71.40;;;;;;4896199;29;20492;-79
2022/06/10 18:15:04;;;;;;;;;;;27.80;69.90;;;;;;4894211;29;19933;-81
2022/06/10 18:17:38;;;;;;;;;;;27.60;70.60;;;;;;4878458;29;19938;-80
2022/06/10 18:20:28;;;;;;;;;;;28.30;71.40;;;;;;4909294;29;19946;-79
2022/06/10 18:22:56;;;;;;;;;;;27.60;71.10;;;;;;4876466;29;19934;-81
2022/06/10 18:25:29;;;;;;;;;;;27.40;71.00;;;;;;4894679;29;19927;-80
2022/06/10 18:27:59;;;;;;;;;;;27.00;71.70;;;;;;4908638;29;19942;-81
2022/06/10 18:30:30;;;;;;;;;;;26.90;72.00;;;;;;4910970;29;20009;-81
2022/06/10 18:32:59;;;;;;;;;;;26.50;72.80;;;;;;4907028;29;19935;-81
2022/06/10 18:35:33;;;;;;;;;;;26.40;73.20;;;;;;4881161;29;19936;-82
2022/06/10 18:38:25;;;;;;;;;;;26.10;73.60;;;;;;4895775;29;20762;-79
2022/06/10 18:40:53;;;;;;;;;;;25.90;74.10;;;;;;4892191;29;19933;-79
2022/06/10 18:43:31;;;;;;;;;;;25.70;74.90;;;;;;4906927;29;19938;-82
2022/06/10 18:46:20;;;;;;;;;;;25.40;75.40;;;;;;4907817;29;19927;-83
2022/06/10 18:48:53;;;;;;;;;;;24.90;76.50;;;;;;4907584;29;19928;-82
2022/06/10 18:51:30;;;;;;;;;;;24.30;78.10;;;;;;4911808;29;19954;-81
2022/06/10 18:53:59;;;;;;;;;;;23.60;80.00;;;;;;4905846;29;19931;-79
2022/06/10 18:56:34;;;;;;;;;;;23.10;81.20;;;;;;4881235;29;19932;-80
2022/06/10 18:59:03;;;;;;;;;;;22.70;81.70;;;;;;4875761;29;20781;-81
2022/06/10 19:01:34;;;;;;;;;;;22.50;82.30;;;;;;4891659;29;19931;-80
2022/06/10 19:04:23;;;;;;;;;;;22.10;83.50;;;;;;4892181;29;19942;-84
2022/06/10 19:06:57;;;;;;;;;;;21.90;84.40;;;;;;4892884;29;19928;-80
2022/06/10 19:09:27;;;;;;;;;;;21.50;85.40;;;;;;4892256;29;19936;-80
2022/06/10 19:11:56;;;;;;;;;;;21.30;86.10;;;;;;4896113;29;19936;-81
2022/06/10 19:14:26;;;;;;;;;;;21.10;86.00;;;;;;4880426;29;19932;-81
2022/06/10 19:16:56;;;;;;;;;;;20.90;86.20;;;;;;4878881;29;19936;-80
2022/06/10 19:19:24;;;;;;;;;;;20.80;86.50;;;;;;4894125;29;19942;-79
2022/06/10 19:21:54;;;;;;;;;;;20.70;87.40;;;;;;4894408;29;19932;-79
2022/06/10 19:24:28;;;;;;;;;;;20.80;88.10;;;;;;4887597;29;19931;-81
2022/06/10 19:26:57;;;;;;;;;;;20.40;88.60;;;;;;4894061;29;19958;-79
2022/06/10 19:29:26;;;;;;;;;;;20.30;89.10;;;;;;4887169;29;20746;-79
2022/06/10 19:31:58;;;;;;;;;;;20.20;88.10;;;;;;4891567;29;20531;-80
2022/06/10 19:34:39;;;;;;;;;;;20.10;88.60;;;;;;4873048;29;19951;-79
2022/06/10 19:37:16;;;;;;;;;;;20.00;89.00;;;;;;4875002;29;19928;-79
2022/06/10 19:39:45;;;;;;;;;;;19.90;89.40;;;;;;4893413;29;19942;-80
2022/06/10 19:42:19;;;;;;;;;;;19.70;89.80;;;;;;4858259;29;19942;-80
2022/06/10 19:44:47;;;;;;;;;;;19.70;90.10;;;;;;4893493;29;19935;-81
2022/06/10 19:47:18;;;;;;;;;;;19.60;90.00;;;;;;4875665;29;19932;-79
2022/06/10 19:49:49;;;;;;;;;;;19.50;90.20;;;;;;4872658;29;19935;-78
2022/06/10 19:52:23;;;;;;;;;;;19.40;90.40;;;;;;4858445;29;20017;-78
2022/06/10 19:54:53;;;;;;;;;;;19.40;90.30;;;;;;4894972;29;19935;-80
2022/06/10 19:57:33;;;;;;;;;;;19.30;90.30;;;;;;4881779;29;19928;-78
2022/06/10 20:00:03;;;;;;;;;;;19.20;90.20;;;;;;4874896;29;19935;-82
2022/06/10 20:02:40;;;;;;;;;;;19.10;90.20;;;;;;4895510;29;19942;-83
2022/06/10 20:05:16;;;;;;;;;;;19.00;90.30;;;;;;4910757;29;19931;-86
2022/06/10 20:07:48;;;;;;;;;;;18.90;90.60;;;;;;4915053;29;19932;-85
2022/06/10 20:10:42;;;;;;;;;;;18.80;91.20;;;;;;4911692;29;19931;-80
2022/06/10 20:13:12;;;;;;;;;;;18.70;91.20;;;;;;4881584;29;19928;-81
2022/06/10 20:15:45;;;;;;;;;;;18.60;91.50;;;;;;4900585;29;19931;-80
2022/06/10 20:18:23;;;;;;;;;;;18.50;91.30;;;;;;4913725;29;19935;-82
2022/06/10 20:20:52;;;;;;;;;;;18.50;91.40;;;;;;4908501;29;19927;-83
2022/06/10 20:23:21;;;;;;;;;;;18.40;91.50;;;;;;4906930;29;19931;-81
2022/06/10 20:25:52;;;;;;;;;;;18.30;92.00;;;;;;4910823;29;19935;-80
2022/06/10 20:28:29;;;;;;;;;;;18.20;92.10;;;;;;4910569;29;19944;-79
2022/06/10 20:30:58;;;;;;;;;;;18.10;92.20;;;;;;4913471;29;19928;-82
2022/06/10 20:33:29;;;;;;;;;;;18.00;92.20;;;;;;4893361;29;19928;-80
2022/06/10 20:36:00;;;;;;;;;;;18.00;92.50;;;;;;4895927;29;19930;-80
2022/06/10 20:38:31;;;;;;;;;;;17.90;92.50;;;;;;4890919;29;19936;-78
2022/06/10 20:41:04;;;;;;;;;;;17.80;92.40;;;;;;5017261;23;20007;-80
2022/06/10 20:43:37;;;;;;;;;;;19.20;93.10;;;;;;4909741;29;19933;-86
2022/06/10 20:46:17;;;;;;;;;;;17.70;92.80;;;;;;4892874;29;19933;-80
2022/06/10 20:48:46;;;;;;;;;;;17.70;92.80;;;;;;4907770;29;19950;-81
2022/06/10 20:51:26;;;;;;;;;;;17.20;92.60;;;;;;4894025;29;19937;-82
2022/06/10 20:53:55;;;;;;;;;;;17.60;92.80;;;;;;4893709;29;19931;-84
2022/06/10 20:56:26;;;;;;;;;;;17.60;92.80;;;;;;4912450;29;20066;-80
2022/06/10 20:58:58;;;;;;;;;;;17.50;92.70;;;;;;4923753;29;19946;-79
2022/06/10 21:01:36;;;;;;;;;;;17.50;92.70;;;;;;4906242;29;19938;-83
2022/06/10 21:09:49;;;;;;;;;;;17.20;92.80;;;;;;4924897;29;19967;-79
2022/06/10 21:12:17;;;;;;;;;;;17.20;92.80;;;;;;4909482;29;19935;-81
2022/06/10 21:14:48;;;;;;;;;;;17.00;92.90;;;;;;4897699;29;19935;-80
2022/06/10 21:17:37;;;;;;;;;;;17.10;92.90;;;;;;4896178;29;19958;-79
2022/06/10 21:20:12;;;;;;;;;;;17.10;93.00;;;;;;4928643;29;19934;-80
2022/06/10 21:22:40;;;;;;;;;;;17.00;93.20;;;;;;4929812;29;19926;-82
2022/06/10 21:25:22;;;;;;;;;;;16.90;93.10;;;;;;4928730;29;20306;-85
2022/06/10 21:27:51;;;;;;;;;;;16.90;93.40;;;;;;4911243;29;19947;-82
2022/06/10 21:30:20;;;;;;;;;;;16.90;93.40;;;;;;4909383;29;19935;-79
2022/06/10 21:32:52;;;;;;;;;;;16.80;93.40;;;;;;4894274;29;19935;-79
2022/06/10 21:35:21;;;;;;;;;;;16.70;93.40;;;;;;4911435;29;19937;-80
2022/06/10 21:37:50;;;;;;;;;;;16.70;93.50;;;;;;4896352;29;19939;-81
2022/06/10 21:40:25;;;;;;;;;;;16.70;93.60;;;;;;4909585;29;19938;-83
2022/06/10 21:45:44;;;;;;;;;;;16.60;94.20;;;;;;4914667;29;19931;-81
2022/06/10 21:48:28;;;;;;;;;;;16.60;94.20;;;;;;4900648;29;19931;-78
2022/06/10 21:50:56;;;;;;;;;;;18.30;94.80;;;;;;4898353;29;19939;-78
2022/06/10 21:53:29;;;;;;;;;;;16.50;94.60;;;;;;4900617;29;20308;-79
2022/06/10 21:55:57;;;;;;;;;;;16.50;95.10;;;;;;4891897;29;19931;-82
2022/06/10 21:58:32;;;;;;;;;;;16.50;95.20;;;;;;4893219;29;19938;-79
2022/06/10 22:01:28;;;;;;;;;;;16.40;95.50;;;;;;4897281;29;19953;-82
2022/06/10 22:04:28;;;;;;;;;;;16.30;95.90;;;;;;4898798;29;19928;-81
2022/06/10 22:06:57;;;;;;;;;;;16.30;96.10;;;;;;4575464;29;10001584;-79
2022/06/10 22:09:28;;;;;;;;;;;16.30;96.40;;;;;;4913791;29;19942;-80
2022/06/10 22:12:00;;;;;;;;;;;16.30;96.50;;;;;;4876508;29;19931;-82
2022/06/10 22:14:28;;;;;;;;;;;16.20;96.70;;;;;;4910195;29;19936;-80
2022/06/10 22:17:02;;;;;;;;;;;16.10;97.20;;;;;;4911788;29;19927;-78
2022/06/10 22:19:34;;;;;;;;;;;16.10;97.20;;;;;;4912883;29;21072;-82
2022/06/10 22:22:05;;;;;;;;;;;16.10;97.70;;;;;;4899868;29;19935;-81
2022/06/10 22:24:55;;;;;;;;;;;16.00;97.90;;;;;;4899156;29;19938;-78
2022/06/10 22:27:25;;;;;;;;;;;16.00;97.80;;;;;;4900758;29;19931;-79
2022/06/10 22:29:52;;;;;;;;;;;16.00;97.70;;;;;;4871662;29;19934;-80
2022/06/10 22:32:22;;;;;;;;;;;15.90;98.00;;;;;;4903739;29;20177;-79
2022/06/10 22:34:51;;;;;;;;;;;15.90;98.30;;;;;;4896808;29;19927;-79
2022/06/10 22:37:22;;;;;;;;;;;15.90;98.50;;;;;;4883365;29;19932;-80
2022/06/10 22:39:51;;;;;;;;;;;15.90;98.60;;;;;;4887770;29;19931;-79
2022/06/10 22:42:21;;;;;;;;;;;15.80;99.10;;;;;;4886475;29;20384;-80
2022/06/10 22:44:49;;;;;;;;;;;15.80;98.80;;;;;;4856125;29;19938;-81
2022/06/10 22:47:23;;;;;;;;;;;15.80;99.20;;;;;;4869092;29;19939;-79
2022/06/10 22:50:01;;;;;;;;;;;15.70;98.90;;;;;;4873729;29;20095;-78
2022/06/10 22:52:35;;;;;;;;;;;15.70;99.10;;;;;;4882743;29;19931;-79
2022/06/10 22:55:05;;;;;;;;;;;15.70;99.20;;;;;;4886307;29;19936;-80
2022/06/10 22:57:54;;;;;;;;;;;15.70;99.60;;;;;;4871306;29;19935;-79
2022/06/10 23:00:26;;;;;;;;;;;15.60;99.50;;;;;;4890626;29;20154;-79
2022/06/10 23:02:56;;;;;;;;;;;15.60;99.70;;;;;;4863643;29;19935;-78
2022/06/10 23:08:21;;;;;;;;;;;15.60;99.90;;;;;;4874725;29;19932;-81
2022/06/10 23:10:49;;;;;;;;;;;15.50;99.90;;;;;;4885176;29;19928;-79
2022/06/10 23:13:20;;;;;;;;;;;15.50;99.90;;;;;;4886978;29;19928;-79
2022/06/10 23:15:52;;;;;;;;;;;15.50;99.90;;;;;;4865215;29;19927;-78
2022/06/10 23:18:22;;;;;;;;;;;15.50;99.90;;;;;;4866119;29;19928;-81
2022/06/10 23:20:52;;;;;;;;;;;14.90;99.90;;;;;;4883171;29;19932;-79
2022/06/10 23:23:22;;;;;;;;;;;15.40;99.90;;;;;;4887352;29;19932;-81
2022/06/10 23:25:51;;;;;;;;;;;15.40;99.90;;;;;;4866280;29;19928;-80
2022/06/10 23:28:22;;;;;;;;;;;15.30;99.90;;;;;;4891081;29;19928;-79
2022/06/10 23:30:55;;;;;;;;;;;15.30;99.90;;;;;;4867232;29;19934;-83
2022/06/10 23:33:24;;;;;;;;;;;15.30;99.90;;;;;;4856904;29;19938;-79
2022/06/10 23:35:52;;;;;;;;;;;15.20;99.90;;;;;;4871437;29;19930;-81
2022/06/10 23:38:28;;;;;;;;;;;15.20;99.90;;;;;;4868181;29;19932;-78
2022/06/10 23:40:57;;;;;;;;;;;15.20;99.90;;;;;;4864772;29;19928;-79
2022/06/10 23:43:27;;;;;;;;;;;15.10;99.90;;;;;;4908402;29;19928;-79
2022/06/10 23:51:32;;;;;;;;;;;15.10;99.90;;;;;;4910866;29;19931;-79
2022/06/10 23:54:08;;;;;;;;;;;15.10;99.90;;;;;;4894770;29;19935;-81
2022/06/10 23:56:36;;;;;;;;;;;15.00;99.90;;;;;;4903085;29;19928;-80
2022/06/10 23:59:06;;;;;;;;;;;15.00;99.90;;;;;;4899433;29;19933;-78
